Time;durP1;ratioP1;P1;durP2;ratioP2;P2;SDS_P1;SDS_P2;PMS_P1;PMS_P2;Temp;Humidity;BMP_temperature;BMP_pressure;BME280_temperature;BME280_humidity;BME280_pressure;Samples;Min_cycle;Max_cycle;Signal;HPM_P1;HPM_P2
2020/12/25 00:01:33;;;;;;;2.87;2.20;;;3.60;99.90;;;;;;4991366;28;20542;-24
2020/12/25 00:04:00;;;;;;;2.07;1.97;;;3.60;99.90;;;;;;4992922;28;20792;-24
2020/12/25 00:06:34;;;;;;;1.50;1.50;;;3.60;99.90;;;;;;4993052;28;20428;-25
2020/12/25 00:09:01;;;;;;;1.57;1.57;;;3.50;99.90;;;;;;4992952;28;20772;-24
2020/12/25 00:11:33;;;;;;;1.87;1.77;;;3.40;99.90;;;;;;4992149;28;20870;-24
2020/12/25 00:14:00;;;;;;;1.77;1.67;;;3.30;99.90;;;;;;4993028;28;20893;-24
2020/12/25 00:16:27;;;;;;;1.40;1.40;;;3.20;99.90;;;;;;4992434;28;20448;-24
2020/12/25 00:18:54;;;;;;;1.37;1.37;;;3.20;99.90;;;;;;4991502;28;20836;-24
2020/12/25 00:21:21;;;;;;;1.20;1.20;;;3.20;99.90;;;;;;4991709;28;20436;-24
2020/12/25 00:23:48;;;;;;;1.30;1.20;;;3.20;99.90;;;;;;4990303;28;20735;-24
2020/12/25 00:26:22;;;;;;;1.30;1.20;;;3.30;99.90;;;;;;4991894;28;20767;-24
2020/12/25 00:28:49;;;;;;;1.50;1.40;;;3.50;99.90;;;;;;4991620;28;20532;-24
2020/12/25 00:31:26;;;;;;;1.13;1.13;;;3.60;99.90;;;;;;4992243;28;20444;-24
2020/12/25 00:33:55;;;;;;;1.23;1.20;;;3.60;99.90;;;;;;4991722;28;20444;-25
2020/12/25 00:36:27;;;;;;;1.33;1.33;;;3.60;99.90;;;;;;4992342;28;20758;-25
2020/12/25 00:38:54;;;;;;;1.30;1.30;;;3.60;99.90;;;;;;4991437;28;20474;-24
2020/12/25 00:41:20;;;;;;;1.07;1.07;;;3.70;99.90;;;;;;4990757;28;20846;-24
2020/12/25 00:43:47;;;;;;;1.60;1.50;;;3.70;99.90;;;;;;4991967;28;20494;-24
2020/12/25 00:46:15;;;;;;;1.70;1.67;;;3.70;99.90;;;;;;4992447;28;20437;-24
2020/12/25 00:48:42;;;;;;;1.40;1.40;;;3.70;99.90;;;;;;4988245;28;20536;-24
2020/12/25 00:51:13;;;;;;;1.60;1.50;;;3.80;99.90;;;;;;4989496;28;20442;-24
2020/12/25 00:53:41;;;;;;;1.63;1.53;;;3.90;99.90;;;;;;4992969;28;20445;-24
2020/12/25 00:56:09;;;;;;;2.00;1.90;;;3.90;99.90;;;;;;4991842;28;20452;-24
2020/12/25 00:58:37;;;;;;;1.70;1.60;;;3.90;99.90;;;;;;4990525;28;20500;-24
2020/12/25 01:01:04;;;;;;;1.50;1.50;;;3.90;99.90;;;;;;4972285;28;20616;-24
2020/12/25 01:03:33;;;;;;;1.80;1.70;;;3.90;99.90;;;;;;4989867;28;20451;-24
2020/12/25 01:06:00;;;;;;;1.60;1.50;;;4.00;99.90;;;;;;4991036;28;20750;-24
2020/12/25 01:08:26;;;;;;;1.30;1.30;;;4.00;99.90;;;;;;4990266;28;20456;-24
2020/12/25 01:10:53;;;;;;;1.60;1.53;;;4.00;99.90;;;;;;4990951;28;20436;-24
2020/12/25 01:13:20;;;;;;;1.40;1.30;;;3.90;99.90;;;;;;4989860;28;20458;-24
2020/12/25 01:15:46;;;;;;;1.60;1.50;;;4.00;99.90;;;;;;4989932;28;20910;-24
2020/12/25 01:18:13;;;;;;;1.50;1.40;;;4.00;99.90;;;;;;4990222;28;21058;-24
2020/12/25 01:20:40;;;;;;;1.20;1.20;;;4.00;99.90;;;;;;4989770;28;20459;-24
2020/12/25 01:23:07;;;;;;;1.17;1.17;;;3.90;99.90;;;;;;4987411;28;20449;-24
2020/12/25 01:25:33;;;;;;;1.70;1.60;;;3.90;99.90;;;;;;4990841;28;20563;-24
2020/12/25 01:28:00;;;;;;;1.50;1.50;;;3.90;99.90;;;;;;4991844;28;20468;-24
2020/12/25 01:30:26;;;;;;;1.43;1.43;;;3.90;99.90;;;;;;4991661;28;20471;-24
2020/12/25 01:32:53;;;;;;;1.30;1.30;;;4.00;99.90;;;;;;4991002;28;20507;-24
2020/12/25 01:35:20;;;;;;;1.43;1.43;;;4.00;99.90;;;;;;4989853;28;20436;-24
2020/12/25 01:37:47;;;;;;;1.43;1.43;;;4.00;99.90;;;;;;4990621;28;20498;-24
2020/12/25 01:40:13;;;;;;;1.47;1.47;;;4.00;99.90;;;;;;4990811;28;20563;-24
2020/12/25 01:42:40;;;;;;;1.80;1.70;;;3.90;99.90;;;;;;4990108;28;20616;-25
2020/12/25 01:45:07;;;;;;;2.10;1.90;;;3.90;99.90;;;;;;4991490;28;20855;-24
2020/12/25 01:47:33;;;;;;;2.43;2.23;;;3.90;99.90;;;;;;4993877;28;20515;-24
2020/12/25 01:50:00;;;;;;;2.30;2.20;;;3.80;99.90;;;;;;4993016;28;20456;-24
2020/12/25 01:52:27;;;;;;;3.03;2.83;;;3.70;99.90;;;;;;4993112;28;20499;-24
2020/12/25 01:54:56;;;;;;;2.90;2.70;;;3.60;99.90;;;;;;4992155;28;20508;-24
2020/12/25 01:57:23;;;;;;;3.20;2.90;;;3.60;99.90;;;;;;4989482;28;20707;-24
2020/12/25 01:59:51;;;;;;;2.93;2.73;;;3.60;99.90;;;;;;4987296;28;20542;-24
2020/12/25 02:02:18;;;;;;;2.77;2.57;;;3.70;99.90;;;;;;4987437;28;20740;-24
2020/12/25 02:04:46;;;;;;;3.40;2.37;;;3.70;99.90;;;;;;4988471;28;20744;-24
2020/12/25 02:07:12;;;;;;;2.53;2.43;;;3.70;99.90;;;;;;4988421;28;20734;-25
2020/12/25 02:09:39;;;;;;;3.23;2.93;;;3.70;99.90;;;;;;4989297;28;20436;-24
2020/12/25 02:12:07;;;;;;;3.50;3.20;;;3.80;99.90;;;;;;4989139;28;20755;-24
2020/12/25 02:14:33;;;;;;;2.93;2.80;;;3.70;99.90;;;;;;4988097;28;20870;-24
2020/12/25 02:17:00;;;;;;;3.70;3.40;;;3.60;99.90;;;;;;4988157;28;20440;-24
2020/12/25 02:19:26;;;;;;;3.50;3.30;;;3.60;99.90;;;;;;4989629;28;20472;-24
2020/12/25 02:21:54;;;;;;;2.80;2.57;;;3.50;99.90;;;;;;4989588;28;20677;-24
2020/12/25 02:24:20;;;;;;;3.20;3.00;;;3.60;99.90;;;;;;4988216;28;20476;-24
2020/12/25 02:26:47;;;;;;;2.93;2.73;;;3.60;99.90;;;;;;4990393;28;20467;-24
2020/12/25 02:29:14;;;;;;;3.33;3.03;;;3.60;99.90;;;;;;4990464;28;20558;-24
2020/12/25 02:31:40;;;;;;;3.30;3.00;;;3.60;99.90;;;;;;4989563;28;20441;-24
2020/12/25 02:34:07;;;;;;;3.57;3.27;;;3.60;99.90;;;;;;4990889;28;20487;-24
2020/12/25 02:36:34;;;;;;;3.37;3.07;;;3.60;99.90;;;;;;4989573;28;20957;-24
2020/12/25 02:39:03;;;;;;;3.23;2.93;;;3.50;99.90;;;;;;4990221;28;20466;-24
2020/12/25 02:41:29;;;;;;;2.83;2.63;;;3.60;99.90;;;;;;4988131;28;20444;-24
2020/12/25 02:43:56;;;;;;;2.60;2.40;;;3.60;99.90;;;;;;4988982;28;20490;-24
2020/12/25 02:46:22;;;;;;;2.77;2.57;;;3.60;99.90;;;;;;4987860;28;20881;-24
2020/12/25 02:48:49;;;;;;;3.17;2.87;;;3.70;99.90;;;;;;4990188;28;20445;-25
2020/12/25 02:51:17;;;;;;;2.73;2.57;;;3.70;99.90;;;;;;4991455;28;20444;-24
2020/12/25 02:53:45;;;;;;;3.10;2.90;;;3.80;99.90;;;;;;4992609;28;20890;-24
2020/12/25 02:56:15;;;;;;;3.20;3.00;;;3.80;99.90;;;;;;4991506;28;20436;-24
2020/12/25 02:58:42;;;;;;;3.53;3.10;;;3.70;99.90;;;;;;4993109;28;20484;-24
2020/12/25 03:01:13;;;;;;;3.50;3.20;;;3.60;99.90;;;;;;4992276;28;21024;-24
2020/12/25 03:03:39;;;;;;;3.63;3.33;;;3.50;99.90;;;;;;4991557;28;20853;-24
2020/12/25 03:06:06;;;;;;;3.43;3.13;;;3.50;99.90;;;;;;4993341;28;20454;-24
2020/12/25 03:08:33;;;;;;;4.13;3.73;;;3.50;99.90;;;;;;4992695;28;20494;-24
2020/12/25 03:11:00;;;;;;;3.97;3.07;;;3.40;99.90;;;;;;4992024;28;21123;-24
2020/12/25 03:13:27;;;;;;;4.00;3.60;;;3.40;99.90;;;;;;4992478;28;20456;-24
2020/12/25 03:15:54;;;;;;;3.70;3.40;;;3.40;99.90;;;;;;4992976;28;20479;-24
2020/12/25 03:18:21;;;;;;;4.13;3.83;;;3.50;99.90;;;;;;4993064;28;20448;-24
2020/12/25 03:20:48;;;;;;;3.40;3.10;;;3.50;99.90;;;;;;4992915;28;20844;-24
2020/12/25 03:23:14;;;;;;;3.83;3.30;;;3.60;99.90;;;;;;4992490;28;20436;-24
2020/12/25 03:25:41;;;;;;;4.30;3.70;;;3.60;99.90;;;;;;4992429;28;20433;-24
2020/12/25 03:28:08;;;;;;;3.43;3.13;;;3.60;99.90;;;;;;4992383;28;20523;-24
2020/12/25 03:30:36;;;;;;;3.70;3.40;;;3.60;99.90;;;;;;4974654;28;20444;-24
2020/12/25 03:33:02;;;;;;;3.30;3.10;;;3.60;99.90;;;;;;4991187;28;20468;-24
2020/12/25 03:35:29;;;;;;;3.53;3.23;;;3.60;99.90;;;;;;4992772;28;20444;-24
2020/12/25 03:37:56;;;;;;;3.27;3.00;;;3.60;99.90;;;;;;4991442;28;20904;-24
2020/12/25 03:40:23;;;;;;;3.20;2.90;;;3.70;99.90;;;;;;4992028;28;20464;-24
2020/12/25 03:42:49;;;;;;;3.30;3.10;;;3.70;99.90;;;;;;4992130;28;20529;-25
2020/12/25 03:45:16;;;;;;;3.37;3.10;;;3.70;99.90;;;;;;4992535;28;20456;-24
2020/12/25 03:47:43;;;;;;;3.77;3.47;;;3.60;99.90;;;;;;4992487;28;20498;-24
2020/12/25 03:50:10;;;;;;;2.90;2.70;;;3.70;99.90;;;;;;4991760;28;20445;-24
2020/12/25 03:52:37;;;;;;;3.13;2.93;;;3.60;99.90;;;;;;4991710;28;20440;-24
2020/12/25 03:55:03;;;;;;;3.33;3.00;;;3.50;99.90;;;;;;4992326;28;20760;-24
2020/12/25 03:57:30;;;;;;;3.53;3.30;;;3.50;99.90;;;;;;4991906;28;20456;-24
2020/12/25 03:59:56;;;;;;;3.40;3.10;;;3.50;99.90;;;;;;4991684;28;20477;-24
2020/12/25 04:02:23;;;;;;;3.33;3.10;;;3.50;99.90;;;;;;4991608;28;20456;-24
2020/12/25 04:04:50;;;;;;;3.57;3.30;;;3.50;99.90;;;;;;4992175;28;20452;-24
2020/12/25 04:07:17;;;;;;;3.70;3.20;;;3.60;99.90;;;;;;4991551;28;20489;-24
2020/12/25 04:09:44;;;;;;;3.60;3.30;;;3.60;99.90;;;;;;4992166;28;20432;-24
2020/12/25 04:12:10;;;;;;;2.70;2.50;;;3.60;99.90;;;;;;4991052;28;20758;-24
2020/12/25 04:14:37;;;;;;;3.83;3.43;;;3.50;99.90;;;;;;4994412;28;20432;-24
2020/12/25 04:17:04;;;;;;;3.50;3.20;;;3.60;99.90;;;;;;4995468;28;20467;-24
2020/12/25 04:19:32;;;;;;;3.47;3.27;;;3.60;99.90;;;;;;4995174;28;20566;-24
2020/12/25 04:21:59;;;;;;;3.43;3.13;;;3.70;99.90;;;;;;4993984;28;20814;-24
2020/12/25 04:24:26;;;;;;;3.10;2.90;;;3.70;99.90;;;;;;4993851;28;20440;-24
2020/12/25 04:26:53;;;;;;;3.00;2.80;;;3.80;99.90;;;;;;4994676;28;20449;-24
2020/12/25 04:29:20;;;;;;;3.63;3.33;;;3.90;99.90;;;;;;4995607;28;20455;-24
2020/12/25 04:31:46;;;;;;;3.63;3.07;;;3.90;99.90;;;;;;4993865;28;20428;-24
2020/12/25 04:34:13;;;;;;;3.17;2.87;;;4.00;99.90;;;;;;4994456;28;20505;-24
2020/12/25 04:36:40;;;;;;;4.57;4.07;;;3.90;99.90;;;;;;4994413;28;20455;-24
2020/12/25 04:39:07;;;;;;;3.83;3.50;;;3.90;99.90;;;;;;4994792;28;20475;-24
2020/12/25 04:41:34;;;;;;;8.20;5.33;;;4.00;99.90;;;;;;4994154;28;20437;-24
2020/12/25 04:44:02;;;;;;;4.20;3.80;;;4.10;99.90;;;;;;4994378;28;20539;-24
2020/12/25 04:46:29;;;;;;;5.27;4.07;;;4.10;99.90;;;;;;4993803;28;20447;-24
2020/12/25 04:48:56;;;;;;;3.43;3.03;;;4.20;99.90;;;;;;4993004;28;20715;-24
2020/12/25 04:51:23;;;;;;;2.17;2.07;;;4.20;99.90;;;;;;4992794;28;20441;-24
2020/12/25 04:53:51;;;;;;;3.33;3.03;;;4.20;99.90;;;;;;4991951;28;20539;-24
2020/12/25 04:56:22;;;;;;;5.70;4.47;;;4.20;99.90;;;;;;4993915;28;20444;-24
2020/12/25 04:58:48;;;;;;;3.23;3.03;;;4.20;99.90;;;;;;4994409;28;20488;-24
2020/12/25 05:01:15;;;;;;;3.83;3.53;;;4.10;99.90;;;;;;4993332;28;20479;-24
2020/12/25 05:03:44;;;;;;;3.37;3.10;;;4.00;99.90;;;;;;4992764;28;20476;-24
2020/12/25 05:06:11;;;;;;;2.97;2.77;;;4.00;99.90;;;;;;4994264;28;20812;-24
2020/12/25 05:08:39;;;;;;;7.77;5.57;;;4.00;99.90;;;;;;4994063;28;20794;-24
2020/12/25 05:11:07;;;;;;;3.93;3.53;;;3.90;99.90;;;;;;4993974;28;20455;-24
2020/12/25 05:13:39;;;;;;;6.50;5.53;;;3.90;99.90;;;;;;4993980;28;20452;-24
2020/12/25 05:16:06;;;;;;;3.60;3.33;;;3.90;99.90;;;;;;4994028;28;20753;-24
2020/12/25 05:18:32;;;;;;;4.00;3.60;;;3.80;99.90;;;;;;4992993;28;20436;-25
2020/12/25 05:20:59;;;;;;;13.93;12.47;;;3.80;99.90;;;;;;4975585;28;20970;-25
2020/12/25 05:23:32;;;;;;;8.63;7.73;;;3.80;99.90;;;;;;4994310;28;20534;-25
2020/12/25 05:26:00;;;;;;;7.87;7.17;;;3.80;99.90;;;;;;4991631;28;20498;-25
2020/12/25 05:28:28;;;;;;;6.70;5.77;;;3.80;99.90;;;;;;4992666;28;20481;-25
2020/12/25 05:30:58;;;;;;;6.53;5.93;;;3.90;99.90;;;;;;4993969;28;20451;-25
2020/12/25 05:33:25;;;;;;;5.77;5.17;;;3.90;99.90;;;;;;4993661;28;20528;-26
2020/12/25 05:35:54;;;;;;;5.57;5.07;;;4.00;99.90;;;;;;4993169;28;20548;-25
2020/12/25 05:38:22;;;;;;;6.30;5.40;;;4.00;99.90;;;;;;4992396;28;20453;-26
2020/12/25 05:40:49;;;;;;;6.87;6.20;;;4.10;99.90;;;;;;4993214;28;20444;-26
2020/12/25 05:43:17;;;;;;;5.40;4.90;;;4.10;99.90;;;;;;4993715;28;20558;-25
2020/12/25 05:45:44;;;;;;;8.47;7.57;;;4.20;99.90;;;;;;4992070;28;20535;-25
2020/12/25 05:48:13;;;;;;;11.57;7.27;;;4.20;99.90;;;;;;4992770;28;20436;-25
2020/12/25 05:50:41;;;;;;;8.53;7.73;;;4.20;99.90;;;;;;4992159;28;20440;-25
2020/12/25 05:53:09;;;;;;;11.37;8.40;;;4.20;99.90;;;;;;4992125;28;20428;-25
2020/12/25 05:55:37;;;;;;;6.47;5.70;;;4.10;99.90;;;;;;4993309;28;20455;-25
2020/12/25 05:58:04;;;;;;;7.00;6.27;;;4.10;99.90;;;;;;4993730;28;20534;-25
2020/12/25 06:00:33;;;;;;;9.00;7.83;;;4.10;99.90;;;;;;4992770;28;20579;-25
2020/12/25 06:03:00;;;;;;;8.50;7.10;;;4.10;99.90;;;;;;4992552;28;20441;-25
2020/12/25 06:05:28;;;;;;;9.17;8.27;;;4.10;99.90;;;;;;4991480;28;20436;-25
2020/12/25 06:07:56;;;;;;;11.87;9.50;;;4.00;99.90;;;;;;4991821;28;20897;-26
2020/12/25 06:10:24;;;;;;;13.83;11.30;;;4.00;99.90;;;;;;4992329;28;20436;-25
2020/12/25 06:12:53;;;;;;;11.37;9.97;;;4.00;99.90;;;;;;4992960;28;20456;-26
2020/12/25 06:15:27;;;;;;;9.47;7.80;;;4.10;99.90;;;;;;4991193;28;20464;-25
2020/12/25 06:18:05;;;;;;;10.33;9.30;;;4.10;99.90;;;;;;4991961;28;20467;-25
2020/12/25 06:20:38;;;;;;;9.43;7.83;;;4.10;99.90;;;;;;4991787;28;20651;-26
2020/12/25 06:23:06;;;;;;;9.43;7.93;;;4.10;99.90;;;;;;4991750;28;20452;-26
2020/12/25 06:25:34;;;;;;;9.43;7.20;;;4.00;99.90;;;;;;4991586;28;20444;-26
2020/12/25 06:28:02;;;;;;;8.67;7.40;;;4.10;99.90;;;;;;4991348;28;20866;-26
2020/12/25 06:30:30;;;;;;;8.90;8.00;;;4.00;99.90;;;;;;4991688;28;20436;-26
2020/12/25 06:32:58;;;;;;;10.50;7.10;;;4.00;99.90;;;;;;4992322;28;20459;-26
2020/12/25 06:35:31;;;;;;;11.97;8.77;;;4.00;99.90;;;;;;4991012;28;20866;-26
2020/12/25 06:37:59;;;;;;;12.20;9.60;;;3.90;99.90;;;;;;4990920;28;20506;-26
2020/12/25 06:40:27;;;;;;;9.57;8.37;;;3.90;99.90;;;;;;4991386;28;20859;-26
2020/12/25 06:42:55;;;;;;;11.63;8.10;;;3.80;99.90;;;;;;4991744;28;20456;-26
2020/12/25 06:45:29;;;;;;;11.07;8.70;;;3.80;99.90;;;;;;4992425;28;20556;-26
2020/12/25 06:48:12;;;;;;;8.07;7.17;;;3.80;99.90;;;;;;4991627;28;20464;-26
2020/12/25 06:50:43;;;;;;;10.83;8.00;;;3.90;99.90;;;;;;4991353;28;20511;-26
2020/12/25 06:53:30;;;;;;;11.47;8.50;;;3.90;99.90;;;;;;4992316;28;20542;-26
2020/12/25 06:56:08;;;;;;;11.17;8.47;;;3.90;99.90;;;;;;4990205;28;20436;-26
2020/12/25 06:58:37;;;;;;;10.20;8.77;;;3.90;99.90;;;;;;4991226;28;20526;-26
2020/12/25 07:01:04;;;;;;;8.60;7.63;;;3.90;99.90;;;;;;4992028;28;21166;-26
2020/12/25 07:03:35;;;;;;;10.83;9.57;;;3.90;99.90;;;;;;4990097;28;20560;-26
2020/12/25 07:06:03;;;;;;;10.57;8.60;;;3.90;99.90;;;;;;4991007;28;20452;-26
2020/12/25 07:08:32;;;;;;;10.60;8.50;;;3.90;99.90;;;;;;4992424;28;20468;-26
2020/12/25 07:11:06;;;;;;;12.67;8.73;;;3.90;99.90;;;;;;4991448;28;20744;-26
2020/12/25 07:13:34;;;;;;;10.17;8.00;;;3.90;99.90;;;;;;4991155;28;20460;-26
2020/12/25 07:16:04;;;;;;;13.50;10.40;;;3.80;99.90;;;;;;4990458;28;20792;-26
2020/12/25 07:18:31;;;;;;;13.70;10.13;;;3.80;99.90;;;;;;4991745;28;20742;-26
2020/12/25 07:20:59;;;;;;;14.60;9.90;;;3.80;99.90;;;;;;4992501;28;20437;-24
2020/12/25 07:23:26;;;;;;;15.10;9.67;;;3.80;99.90;;;;;;4991055;28;20448;-26
2020/12/25 07:25:58;;;;;;;12.93;10.30;;;3.80;99.90;;;;;;4991169;28;20440;-26
2020/12/25 07:28:25;;;;;;;13.30;9.73;;;3.70;99.90;;;;;;4991344;28;20463;-26
2020/12/25 07:30:54;;;;;;;14.87;10.17;;;3.70;99.90;;;;;;4992633;28;20837;-26
2020/12/25 07:33:21;;;;;;;12.73;9.37;;;3.80;99.90;;;;;;4991293;28;20558;-26
2020/12/25 07:35:48;;;;;;;12.03;10.77;;;3.80;99.90;;;;;;4992598;28;20452;-26
2020/12/25 07:38:15;;;;;;;13.77;9.87;;;3.80;99.90;;;;;;4991416;28;20464;-26
2020/12/25 07:40:43;;;;;;;11.03;8.40;;;3.80;99.90;;;;;;4990944;28;20471;-26
2020/12/25 07:43:11;;;;;;;13.07;10.10;;;3.90;99.90;;;;;;4991439;28;20470;-26
2020/12/25 07:45:38;;;;;;;15.20;10.30;;;4.00;99.90;;;;;;4991024;28;20452;-26
2020/12/25 07:48:06;;;;;;;13.70;10.30;;;4.00;99.90;;;;;;4991921;28;20468;-26
2020/12/25 07:50:36;;;;;;;15.83;10.03;;;4.00;99.90;;;;;;4993288;28;20432;-26
2020/12/25 07:53:07;;;;;;;15.77;11.23;;;4.00;99.90;;;;;;4994237;28;20476;-26
2020/12/25 07:55:34;;;;;;;15.00;10.37;;;4.10;99.90;;;;;;4993443;28;20741;-26
2020/12/25 07:58:01;;;;;;;13.70;9.83;;;4.20;99.90;;;;;;4994506;28;20623;-26
2020/12/25 08:00:29;;;;;;;14.53;10.00;;;4.20;99.90;;;;;;4993816;28;20883;-26
2020/12/25 08:02:55;;;;;;;14.03;11.40;;;4.20;99.90;;;;;;4993876;28;20447;-26
2020/12/25 08:05:22;;;;;;;23.93;18.10;;;4.30;99.90;;;;;;4992816;28;20514;-26
2020/12/25 08:07:52;;;;;;;13.53;9.30;;;4.30;99.90;;;;;;4993907;28;20439;-26
2020/12/25 08:10:19;;;;;;;12.40;9.30;;;4.30;99.90;;;;;;4993724;28;20498;-26
2020/12/25 08:12:51;;;;;;;13.80;10.40;;;4.20;99.90;;;;;;4994066;28;20464;-26
2020/12/25 08:15:20;;;;;;;12.67;9.17;;;4.20;99.90;;;;;;4993435;28;20538;-26
2020/12/25 08:17:49;;;;;;;13.10;10.00;;;4.10;99.90;;;;;;4992482;28;20442;-26
2020/12/25 08:20:16;;;;;;;14.53;10.97;;;4.20;99.90;;;;;;4994234;28;20472;-26
2020/12/25 08:22:42;;;;;;;14.03;10.67;;;4.20;99.90;;;;;;4994420;28;20471;-26
2020/12/25 08:25:10;;;;;;;13.00;9.73;;;4.20;99.90;;;;;;4994013;28;20547;-26
2020/12/25 08:27:37;;;;;;;13.60;10.63;;;4.30;99.90;;;;;;4993744;28;20555;-26
2020/12/25 08:30:05;;;;;;;14.50;9.73;;;4.30;99.90;;;;;;4992904;28;20458;-26
2020/12/25 08:32:33;;;;;;;13.13;9.50;;;4.40;99.90;;;;;;4991917;28;20531;-26
2020/12/25 08:35:12;;;;;;;17.17;11.03;;;4.30;99.90;;;;;;4992974;28;20452;-26
2020/12/25 08:37:38;;;;;;;12.70;9.90;;;4.40;99.90;;;;;;4993527;28;20451;-26
2020/12/25 08:40:13;;;;;;;14.60;10.43;;;4.40;99.90;;;;;;4992472;28;20575;-26
2020/12/25 08:42:39;;;;;;;12.90;9.53;;;4.40;99.90;;;;;;4993305;28;20537;-26
2020/12/25 08:45:06;;;;;;;13.10;10.47;;;4.40;99.90;;;;;;4991467;28;20445;-26
2020/12/25 08:47:32;;;;;;;13.77;10.47;;;4.40;99.90;;;;;;4992456;28;20456;-26
2020/12/25 08:49:59;;;;;;;14.13;9.70;;;4.40;99.90;;;;;;4991585;28;20708;-26
2020/12/25 08:52:28;;;;;;;13.23;10.07;;;4.40;99.90;;;;;;4993147;28;20440;-26
2020/12/25 08:54:55;;;;;;;12.80;10.20;;;4.40;99.90;;;;;;4990867;28;20454;-26
2020/12/25 08:57:22;;;;;;;16.20;10.40;;;4.50;99.90;;;;;;4991646;28;20555;-26
2020/12/25 08:59:59;;;;;;;15.83;10.83;;;4.50;99.90;;;;;;4990805;28;20579;-26
2020/12/25 09:02:25;;;;;;;14.23;10.33;;;4.50;99.90;;;;;;4992079;28;20800;-26
2020/12/25 09:04:52;;;;;;;13.60;9.40;;;4.40;99.90;;;;;;4992681;28;20477;-26
2020/12/25 09:07:18;;;;;;;10.40;8.57;;;4.40;99.90;;;;;;4991325;28;20843;-26
2020/12/25 09:09:46;;;;;;;13.63;9.77;;;4.40;99.90;;;;;;4992072;28;20441;-26
2020/12/25 09:12:12;;;;;;;12.20;8.77;;;4.30;99.90;;;;;;4991664;28;20475;-26
2020/12/25 09:14:39;;;;;;;11.90;8.67;;;4.30;99.90;;;;;;4991533;28;20451;-26
2020/12/25 09:17:06;;;;;;;13.30;10.30;;;4.30;99.90;;;;;;4991402;28;20437;-26
2020/12/25 09:19:32;;;;;;;12.17;9.37;;;4.50;99.90;;;;;;4991927;28;21130;-27
2020/12/25 09:21:58;;;;;;;13.50;9.73;;;4.50;99.90;;;;;;4991804;28;20444;-26
2020/12/25 09:24:25;;;;;;;12.93;9.30;;;4.60;99.90;;;;;;4988695;28;20472;-26
2020/12/25 09:26:52;;;;;;;18.20;10.73;;;4.60;99.90;;;;;;4990670;28;20451;-26
2020/12/25 09:29:19;;;;;;;16.90;11.70;;;4.70;99.90;;;;;;4991750;28;21006;-26
2020/12/25 09:31:45;;;;;;;14.33;11.30;;;4.80;99.90;;;;;;4990591;28;20576;-26
2020/12/25 09:34:12;;;;;;;17.30;11.20;;;4.90;99.90;;;;;;4990541;28;20444;-26
2020/12/25 09:36:43;;;;;;;15.13;10.30;;;5.00;99.90;;;;;;4990076;28;20506;-26
2020/12/25 09:39:09;;;;;;;14.67;10.70;;;5.10;99.90;;;;;;4989302;28;20472;-26
2020/12/25 09:41:36;;;;;;;13.10;9.60;;;5.30;99.90;;;;;;4990867;28;21217;-26
2020/12/25 09:44:03;;;;;;;11.40;8.10;;;5.40;99.90;;;;;;4990347;28;21047;-26
2020/12/25 09:46:30;;;;;;;9.73;8.00;;;5.60;99.90;;;;;;4989841;28;20436;-26
2020/12/25 09:48:59;;;;;;;9.80;7.73;;;5.60;99.90;;;;;;4977104;28;20615;-25
2020/12/25 09:51:28;;;;;;;10.57;8.10;;;5.70;99.90;;;;;;4980487;28;20457;-24
2020/12/25 09:53:59;;;;;;;9.57;7.87;;;5.60;99.90;;;;;;4971324;28;20456;-26
2020/12/25 09:56:27;;;;;;;9.37;7.50;;;5.70;99.90;;;;;;4969967;28;21065;-26
2020/12/25 09:58:56;;;;;;;11.13;9.10;;;5.60;99.90;;;;;;4971149;28;20885;-26
2020/12/25 10:01:28;;;;;;;9.57;8.00;;;5.60;99.90;;;;;;4972184;28;20535;-26
2020/12/25 10:03:56;;;;;;;11.10;8.27;;;5.60;99.90;;;;;;4970110;28;20441;-26
2020/12/25 10:06:29;;;;;;;9.40;8.00;;;5.50;99.90;;;;;;4970325;28;20946;-26
2020/12/25 10:11:39;;;;;;;11.53;8.83;;;5.30;99.90;;;;;;4970059;28;20437;-26
2020/12/25 10:14:07;;;;;;;18.33;11.03;;;5.20;99.90;;;;;;4969398;28;20496;-26
2020/12/25 10:16:35;;;;;;;16.40;9.73;;;5.10;99.90;;;;;;4970966;28;20508;-26
2020/12/25 10:19:02;;;;;;;11.17;9.00;;;5.10;99.90;;;;;;4980471;28;21123;-25
2020/12/25 10:21:30;;;;;;;12.73;9.67;;;5.10;99.90;;;;;;4980030;28;20491;-25
2020/12/25 10:24:05;;;;;;;11.90;8.97;;;4.90;99.90;;;;;;4978921;28;20993;-26
2020/12/25 10:26:33;;;;;;;14.70;8.90;;;4.80;99.90;;;;;;4978892;28;20990;-26
2020/12/25 10:29:01;;;;;;;10.60;8.70;;;4.80;99.90;;;;;;4981568;28;20454;-26
2020/12/25 10:31:27;;;;;;;13.90;9.37;;;4.80;99.90;;;;;;4991947;28;20468;-26
2020/12/25 10:33:56;;;;;;;13.53;10.30;;;4.80;99.90;;;;;;4983914;28;21156;-26
2020/12/25 10:36:24;;;;;;;11.73;8.53;;;4.80;99.90;;;;;;4989404;28;20883;-26
2020/12/25 10:38:52;;;;;;;10.93;9.60;;;4.80;99.90;;;;;;4989987;28;20437;-26
2020/12/25 10:41:19;;;;;;;10.70;9.17;;;4.80;99.90;;;;;;4989504;28;20813;-26
2020/12/25 10:43:48;;;;;;;11.50;9.27;;;4.80;99.90;;;;;;4988611;28;20535;-26
2020/12/25 10:46:20;;;;;;;14.40;10.30;;;4.90;99.90;;;;;;4966767;28;20954;-26
2020/12/25 10:48:47;;;;;;;12.60;9.50;;;5.00;99.90;;;;;;4970396;28;20477;-26
2020/12/25 10:51:14;;;;;;;12.17;9.20;;;5.10;99.90;;;;;;4970497;28;20472;-26
2020/12/25 10:53:41;;;;;;;11.83;8.80;;;5.20;99.90;;;;;;4989585;28;20469;-26
2020/12/25 10:56:09;;;;;;;10.57;8.67;;;5.20;99.90;;;;;;4988048;28;20855;-26
2020/12/25 10:58:38;;;;;;;11.90;8.17;;;5.20;99.90;;;;;;4989188;28;20447;-26
2020/12/25 11:01:07;;;;;;;10.60;8.57;;;5.30;99.90;;;;;;4990440;28;20472;-26
2020/12/25 11:03:34;;;;;;;10.00;8.23;;;5.30;99.90;;;;;;4990011;28;20485;-26
2020/12/25 11:06:01;;;;;;;9.67;7.90;;;5.30;99.90;;;;;;4989488;28;20452;-26
2020/12/25 11:08:31;;;;;;;9.20;7.63;;;5.40;99.90;;;;;;4988653;28;21000;-26
2020/12/25 11:10:59;;;;;;;9.80;8.40;;;5.50;99.90;;;;;;4988694;28;20535;-26
2020/12/25 11:13:25;;;;;;;9.87;8.63;;;5.60;99.90;;;;;;4989787;28;20567;-26
2020/12/25 11:15:53;;;;;;;9.30;7.90;;;5.70;99.90;;;;;;4988882;28;20463;-26
2020/12/25 11:18:20;;;;;;;8.30;7.23;;;5.80;99.90;;;;;;4986427;28;20662;-26
2020/12/25 11:20:50;;;;;;;8.93;7.60;;;5.90;99.90;;;;;;4989415;28;20557;-26
2020/12/25 11:23:17;;;;;;;9.30;8.33;;;6.00;99.90;;;;;;4988781;28;20858;-26
2020/12/25 11:25:46;;;;;;;8.00;7.20;;;6.10;99.90;;;;;;4992262;28;20873;-26
2020/12/25 11:28:14;;;;;;;13.73;8.67;;;6.20;99.90;;;;;;4991992;28;20444;-26
2020/12/25 11:30:41;;;;;;;8.73;7.83;;;6.10;99.90;;;;;;4992128;28;20479;-26
2020/12/25 11:33:09;;;;;;;11.23;8.80;;;6.10;99.90;;;;;;4993688;28;20562;-26
2020/12/25 11:35:36;;;;;;;8.63;7.80;;;6.20;99.90;;;;;;4992938;28;20459;-27
2020/12/25 11:38:04;;;;;;;7.40;6.70;;;6.20;99.90;;;;;;4992560;28;20487;-26
2020/12/25 11:40:31;;;;;;;9.43;7.20;;;6.00;99.90;;;;;;4993446;28;20473;-26
2020/12/25 11:43:00;;;;;;;8.40;7.60;;;6.00;99.90;;;;;;4992138;28;20863;-26
2020/12/25 11:45:27;;;;;;;7.57;6.97;;;5.90;99.90;;;;;;4993147;28;20542;-26
2020/12/25 11:47:54;;;;;;;9.90;7.93;;;6.00;99.90;;;;;;4993213;28;20456;-26
2020/12/25 11:50:20;;;;;;;6.80;6.20;;;6.00;99.90;;;;;;4993796;28;20478;-26
2020/12/25 11:52:48;;;;;;;6.77;6.17;;;6.20;99.90;;;;;;4991711;28;20465;-26
2020/12/25 11:55:16;;;;;;;7.77;6.90;;;6.00;99.90;;;;;;4992847;28;20478;-26
2020/12/25 11:57:44;;;;;;;7.77;6.73;;;5.80;99.90;;;;;;4991339;28;20444;-26
2020/12/25 12:00:14;;;;;;;7.50;6.70;;;5.60;99.90;;;;;;4991961;28;20475;-26
2020/12/25 12:02:41;;;;;;;7.23;6.53;;;5.40;99.90;;;;;;4991780;28;20459;-26
2020/12/25 12:05:10;;;;;;;7.13;6.43;;;5.30;99.90;;;;;;4991330;28;20544;-26
2020/12/25 12:07:38;;;;;;;7.27;6.67;;;5.20;99.90;;;;;;4990425;28;20447;-26
2020/12/25 12:10:05;;;;;;;7.73;7.00;;;5.20;99.90;;;;;;4990801;28;20471;-26
2020/12/25 12:12:32;;;;;;;7.40;6.80;;;5.30;99.90;;;;;;4990321;28;20526;-26
2020/12/25 12:15:00;;;;;;;8.00;7.30;;;5.20;99.90;;;;;;4990844;28;20436;-26
2020/12/25 12:17:33;;;;;;;7.57;6.73;;;5.10;99.90;;;;;;4990176;28;20487;-26
2020/12/25 12:20:00;;;;;;;7.33;6.70;;;5.00;99.90;;;;;;4991563;28;20984;-26
2020/12/25 12:22:28;;;;;;;8.60;6.90;;;5.10;99.90;;;;;;4992120;28;20499;-26
2020/12/25 12:24:54;;;;;;;7.37;6.67;;;5.10;99.90;;;;;;4991187;28;20456;-26
2020/12/25 12:27:22;;;;;;;7.50;6.80;;;5.00;99.90;;;;;;4992127;28;20904;-26
2020/12/25 12:29:55;;;;;;;8.50;7.33;;;5.00;99.90;;;;;;4991678;28;20428;-26
2020/12/25 12:32:25;;;;;;;8.30;7.33;;;5.00;99.90;;;;;;4991253;28;20468;-26
2020/12/25 12:35:01;;;;;;;8.40;7.60;;;5.00;99.90;;;;;;4989778;28;20456;-26
2020/12/25 12:37:29;;;;;;;8.97;7.90;;;5.00;99.90;;;;;;4991669;28;20451;-26
2020/12/25 12:39:57;;;;;;;8.93;8.03;;;5.10;99.90;;;;;;4990072;28;20512;-26
2020/12/25 12:42:29;;;;;;;9.20;8.37;;;5.00;99.90;;;;;;4990845;28;20443;-26
2020/12/25 12:44:56;;;;;;;8.20;7.37;;;4.90;99.90;;;;;;4991590;28;20441;-26
2020/12/25 12:47:23;;;;;;;9.83;8.00;;;4.90;99.90;;;;;;4991995;28;20452;-26
2020/12/25 12:49:51;;;;;;;7.50;6.80;;;4.90;99.90;;;;;;4974288;28;21098;-26
2020/12/25 12:52:21;;;;;;;8.33;7.37;;;4.90;99.90;;;;;;4971581;28;20716;-26
2020/12/25 12:54:49;;;;;;;8.60;7.70;;;5.00;99.90;;;;;;4970665;28;20907;-26
2020/12/25 12:57:17;;;;;;;7.53;6.83;;;4.90;99.90;;;;;;4972932;28;20445;-26
2020/12/25 12:59:45;;;;;;;8.97;7.50;;;4.80;99.90;;;;;;4971143;28;20473;-26